Time;durP1;ratioP1;P1;durP2;ratioP2;P2;SDS_P1;SDS_P2;PMS_P1;PMS_P2;Temp;Humidity;BMP_temperature;BMP_pressure;BME280_temperature;BME280_humidity;BME280_pressure;Samples;Min_cycle;Max_cycle;Signal;HPM_P1;HPM_P2
2021/12/12 03:45:22;;;;;;;13.80;7.07;;;3.80;89.90;;;;;;5570594;24;20992;-82
2021/12/12 03:48:18;;;;;;;13.80;7.17;;;3.80;89.90;;;;;;4663465;30;20344;-82
2021/12/12 03:50:46;;;;;;;14.23;7.03;;;3.80;90.20;;;;;;4606304;31;20311;-81
2021/12/12 03:53:13;;;;;;;10.90;6.50;;;3.90;90.40;;;;;;4610705;31;20122;-81
2021/12/12 03:55:41;;;;;;;13.38;7.03;;;3.90;90.50;;;;;;4617816;31;20315;-81
2021/12/12 03:58:07;;;;;;;21.00;8.57;;;3.90;90.40;;;;;;4606034;31;20055;-81
2021/12/12 04:00:40;;;;;;;16.48;7.88;;;3.80;90.50;;;;;;4610314;31;20046;-82
2021/12/12 04:03:06;;;;;;;14.63;7.60;;;3.80;90.60;;;;;;4623823;31;20235;-82
2021/12/12 04:05:32;;;;;;;12.68;7.78;;;3.80;90.60;;;;;;4610376;31;20071;-82
2021/12/12 04:07:58;;;;;;;13.13;8.10;;;3.80;90.80;;;;;;4610229;31;20055;-82
2021/12/12 04:10:25;;;;;;;12.43;7.50;;;3.90;91.00;;;;;;4593047;31;20067;-82
2021/12/12 04:12:53;;;;;;;15.45;8.82;;;3.90;91.20;;;;;;4609302;31;20035;-82
2021/12/12 04:15:19;;;;;;;14.02;8.30;;;3.90;90.70;;;;;;4600485;31;20107;-82
2021/12/12 04:17:45;;;;;;;15.82;8.07;;;3.80;91.20;;;;;;4605351;31;20077;-82
2021/12/12 04:20:19;;;;;;;17.10;9.07;;;3.80;91.20;;;;;;4585790;31;20236;-82
2021/12/12 04:22:46;;;;;;;17.10;9.48;;;3.80;91.50;;;;;;4599387;31;20036;-82
2021/12/12 04:25:12;;;;;;;15.15;9.45;;;3.80;91.30;;;;;;4622571;31;20050;-82
2021/12/12 04:27:38;;;;;;;14.65;9.15;;;3.80;91.50;;;;;;4643395;30;20030;-81
2021/12/12 04:30:06;;;;;;;15.70;8.57;;;3.80;91.30;;;;;;4674140;30;20030;-81
2021/12/12 04:32:32;;;;;;;15.05;9.13;;;3.80;91.50;;;;;;4660847;30;20034;-81
2021/12/12 04:35:07;;;;;;;17.65;10.48;;;3.80;91.40;;;;;;4677440;30;20033;-82
2021/12/12 04:37:33;;;;;;;15.35;8.50;;;3.90;91.70;;;;;;4678088;30;20394;-81
2021/12/12 04:39:59;;;;;;;15.82;9.50;;;3.80;91.80;;;;;;4651529;30;20031;-81
2021/12/12 04:42:29;;;;;;;15.60;8.35;;;3.80;91.80;;;;;;4658373;30;20322;-81
2021/12/12 04:45:33;;;;;;;18.42;9.77;;;3.80;92.00;;;;;;4675763;30;20278;-81
2021/12/12 04:51:17;;;;;;;15.65;9.05;;;3.80;92.10;;;;;;4638774;30;20126;-80
2021/12/12 04:53:49;;;;;;;15.20;8.88;;;3.80;92.50;;;;;;4573427;31;20291;-80
2021/12/12 04:56:37;;;;;;;17.50;9.02;;;3.70;92.30;;;;;;4555625;31;20333;-80
2021/12/12 04:59:10;;;;;;;17.52;10.02;;;3.70;92.40;;;;;;4545339;31;20097;-81
2021/12/12 05:01:57;;;;;;;13.35;8.73;;;3.70;92.50;;;;;;4569089;31;20048;-81
2021/12/12 05:04:29;;;;;;;;;;;3.80;92.50;;;;;;4570157;31;20054;-81
2021/12/12 05:07:17;;;;;;;16.58;8.52;;;3.70;92.30;;;;;;4570940;31;19986;-81
2021/12/12 05:09:51;;;;;;;17.05;9.82;;;3.60;92.20;;;;;;4560004;31;20033;-81
2021/12/12 05:12:36;;;;;;;18.02;9.70;;;3.60;92.40;;;;;;4559859;31;20292;-81
2021/12/12 05:15:10;;;;;;;14.63;9.25;;;3.50;92.50;;;;;;4558904;31;20111;-80
2021/12/12 05:17:42;;;;;;;17.08;9.27;;;3.40;92.70;;;;;;4554326;31;20065;-80
2021/12/12 05:20:14;;;;;;;15.00;9.45;;;3.30;92.60;;;;;;4567425;31;20041;-81
2021/12/12 05:22:47;;;;;;;17.40;9.48;;;3.30;93.00;;;;;;4572256;31;20036;-81
2021/12/12 05:25:19;;;;;;;17.83;9.25;;;3.20;93.10;;;;;;4582917;31;20390;-81
2021/12/12 05:27:48;;;;;;;16.65;9.30;;;3.20;93.50;;;;;;4588462;31;20037;-81
2021/12/12 05:30:21;;;;;;;17.30;9.27;;;3.20;93.30;;;;;;4610174;30;20042;-81
2021/12/12 05:32:49;;;;;;;15.27;9.60;;;3.20;93.40;;;;;;4660070;30;20039;-81
2021/12/12 05:35:19;;;;;;;18.85;9.40;;;3.20;93.50;;;;;;4632534;30;20043;-81
2021/12/12 05:37:54;;;;;;;17.98;9.52;;;3.10;93.30;;;;;;4629274;30;20039;-81
2021/12/12 05:40:22;;;;;;;15.88;8.80;;;3.20;93.70;;;;;;4635955;30;20177;-82
2021/12/12 05:42:52;;;;;;;21.13;10.05;;;3.10;93.60;;;;;;4660248;30;20089;-82
2021/12/12 05:45:18;;;;;;;14.82;9.55;;;3.20;93.60;;;;;;4660023;30;20042;-81
2021/12/12 05:47:45;;;;;;;14.63;8.68;;;3.10;93.60;;;;;;4644726;30;20050;-81
2021/12/12 05:50:12;;;;;;;16.58;9.60;;;3.10;93.40;;;;;;4646030;30;20034;-82
2021/12/12 05:52:41;;;;;;;17.52;9.75;;;3.10;93.50;;;;;;4659816;30;20113;-82
2021/12/12 05:55:08;;;;;;;13.35;7.70;;;3.10;93.40;;;;;;4659890;30;20254;-82
2021/12/12 05:57:35;;;;;;;15.70;8.40;;;3.10;93.20;;;;;;4632026;30;20071;-82
2021/12/12 06:00:10;;;;;;;15.82;8.27;;;3.10;93.20;;;;;;4659926;30;20071;-82
2021/12/12 06:02:36;;;;;;;13.57;7.25;;;3.10;93.10;;;;;;4659943;30;20042;-82
2021/12/12 06:05:04;;;;;;;17.38;8.45;;;3.10;92.90;;;;;;4646088;30;20054;-82
2021/12/12 06:07:31;;;;;;;15.68;8.13;;;3.20;93.20;;;;;;4631796;30;20055;-82
2021/12/12 06:09:57;;;;;;;19.60;9.00;;;3.10;93.00;;;;;;4631708;30;20038;-82
2021/12/12 06:12:24;;;;;;;11.77;7.72;;;3.20;93.20;;;;;;4631861;30;20128;-82
2021/12/12 06:14:51;;;;;;;12.48;7.68;;;3.20;92.90;;;;;;4631868;30;20054;-82
2021/12/12 06:17:18;;;;;;;11.88;7.50;;;3.20;93.20;;;;;;4618018;30;20361;-82
2021/12/12 06:19:46;;;;;;;16.48;8.30;;;3.20;93.30;;;;;;4645931;30;20364;-81
2021/12/12 06:22:12;;;;;;;13.77;8.40;;;3.20;93.30;;;;;;4645632;30;20035;-82
2021/12/12 06:24:40;;;;;;;11.95;7.38;;;3.20;93.30;;;;;;4659568;30;20038;-82
2021/12/12 06:27:15;;;;;;;13.73;8.65;;;3.10;93.10;;;;;;4643338;30;20098;-82
2021/12/12 06:29:42;;;;;;;13.50;7.38;;;3.10;93.40;;;;;;4659577;30;20042;-83
2021/12/12 06:32:08;;;;;;;;;;;3.20;92.90;;;;;;4642904;30;20290;-82
2021/12/12 06:34:34;;;;;;;13.10;7.83;;;3.20;93.00;;;;;;4655375;30;19907;-82
2021/12/12 06:37:00;;;;;;;13.65;7.28;;;3.20;93.10;;;;;;4645575;30;20044;-82
2021/12/12 06:39:26;;;;;;;15.47;8.10;;;3.20;93.30;;;;;;4631640;30;20054;-82
2021/12/12 06:41:54;;;;;;;14.75;8.02;;;3.20;93.10;;;;;;4662680;30;20034;-83
2021/12/12 06:44:20;;;;;;;16.70;7.88;;;3.20;93.10;;;;;;4648555;30;20050;-82
2021/12/12 06:46:46;;;;;;;14.87;7.93;;;3.20;93.00;;;;;;4627105;30;20070;-83
2021/12/12 06:49:16;;;;;;;17.48;8.60;;;3.20;93.20;;;;;;4635684;30;20040;-83
2021/12/12 06:51:48;;;;;;;16.58;8.48;;;3.20;93.20;;;;;;4642893;30;20045;-83
2021/12/12 06:54:19;;;;;;;14.45;7.57;;;3.20;93.30;;;;;;4662291;30;20047;-83
2021/12/12 06:56:47;;;;;;;14.43;7.80;;;3.30;93.20;;;;;;4641961;30;20226;-83
2021/12/12 06:59:13;;;;;;;17.08;8.30;;;3.30;93.30;;;;;;4630449;30;20413;-83
2021/12/12 07:01:39;;;;;;;13.43;8.27;;;3.40;93.20;;;;;;4637480;30;20173;-83
2021/12/12 07:04:09;;;;;;;17.13;9.73;;;3.40;93.10;;;;;;4645286;30;20046;-83
2021/12/12 07:06:37;;;;;;;15.30;8.88;;;3.50;93.10;;;;;;4652499;30;20038;-83
2021/12/12 07:09:07;;;;;;;12.43;7.70;;;3.50;93.10;;;;;;4659291;30;20093;-84
2021/12/12 07:11:34;;;;;;;17.65;9.40;;;3.50;93.00;;;;;;4658692;30;20107;-83
2021/12/12 07:14:01;;;;;;;15.68;8.38;;;3.60;92.60;;;;;;4640442;30;20044;-83
2021/12/12 07:16:28;;;;;;;14.77;8.77;;;3.60;92.70;;;;;;4629182;30;20027;-83
2021/12/12 07:18:55;;;;;;;12.77;8.32;;;3.60;92.30;;;;;;4641571;30;20123;-83
2021/12/12 07:21:24;;;;;;;13.52;8.18;;;3.60;92.50;;;;;;4659069;30;20034;-84
2021/12/12 07:23:50;;;;;;;14.43;8.80;;;3.60;92.40;;;;;;4654451;30;20354;-83
2021/12/12 07:26:18;;;;;;;13.03;8.07;;;3.70;92.40;;;;;;4658657;30;20031;-83
2021/12/12 07:28:45;;;;;;;11.75;7.70;;;3.70;92.00;;;;;;4655829;30;20323;-83
2021/12/12 07:31:23;;;;;;;13.30;8.13;;;3.70;91.70;;;;;;4658704;30;20092;-84
2021/12/12 07:33:53;;;;;;;13.93;7.53;;;3.80;92.00;;;;;;4660990;30;20047;-84
2021/12/12 07:36:20;;;;;;;13.38;7.85;;;3.90;91.70;;;;;;4656691;30;20059;-84
2021/12/12 07:38:51;;;;;;;13.95;8.15;;;3.90;91.50;;;;;;4657347;30;20061;-84
2021/12/12 07:41:22;;;;;;;15.07;8.52;;;4.10;91.70;;;;;;4644112;30;20115;-84
2021/12/12 07:43:48;;;;;;;16.15;7.90;;;4.20;91.00;;;;;;4663832;30;20031;-84
2021/12/12 07:46:14;;;;;;;14.88;7.35;;;4.20;91.00;;;;;;4674214;30;20053;-83
2021/12/12 07:48:44;;;;;;;16.05;7.18;;;4.30;90.20;;;;;;4655094;30;20098;-84
2021/12/12 07:51:10;;;;;;;16.27;7.10;;;4.30;90.40;;;;;;4660164;30;20362;-84
2021/12/12 07:53:36;;;;;;;15.48;7.60;;;4.40;90.00;;;;;;4659979;30;20026;-84
2021/12/12 07:56:03;;;;;;;17.83;8.45;;;4.50;90.10;;;;;;4660070;30;20050;-84
2021/12/12 07:58:29;;;;;;;14.73;8.50;;;4.50;89.50;;;;;;4659847;30;20045;-84
2021/12/12 08:00:57;;;;;;;18.45;9.63;;;4.50;90.00;;;;;;4658203;30;20061;-84
2021/12/12 08:03:30;;;;;;;14.48;9.13;;;4.60;90.30;;;;;;4655693;30;20098;-84
2021/12/12 08:05:59;;;;;;;14.68;9.57;;;4.60;90.30;;;;;;4658185;30;20050;-84
2021/12/12 08:08:27;;;;;;;78.35;25.95;;;4.60;90.70;;;;;;4655804;30;20029;-83
2021/12/12 08:10:54;;;;;;;42.47;16.83;;;4.70;90.30;;;;;;4653841;30;20030;-83
2021/12/12 08:13:20;;;;;;;16.35;10.50;;;4.70;90.80;;;;;;4660584;30;20066;-84
2021/12/12 08:15:47;;;;;;;20.02;11.02;;;4.70;90.90;;;;;;4656118;30;20372;-84
2021/12/12 08:18:15;;;;;;;19.10;10.48;;;4.70;91.10;;;;;;4643506;30;20039;-84
2021/12/12 08:20:43;;;;;;;18.40;11.10;;;4.70;91.70;;;;;;4642801;30;20073;-85
2021/12/12 08:23:10;;;;;;;26.77;12.35;;;4.70;91.20;;;;;;4643857;30;20047;-85
2021/12/12 08:25:37;;;;;;;20.50;11.55;;;4.80;91.50;;;;;;4657978;30;20101;-85
2021/12/12 08:28:04;;;;;;;19.10;10.93;;;4.80;91.40;;;;;;4672564;30;20038;-84
2021/12/12 08:30:30;;;;;;;;;;;4.80;91.30;;;;;;4657384;30;20267;-84
2021/12/12 08:32:57;;;;;;;26.30;11.57;;;4.70;91.30;;;;;;4659387;30;20299;-84
2021/12/12 08:35:25;;;;;;;21.92;11.55;;;4.70;91.40;;;;;;4643459;30;20298;-84
2021/12/12 08:37:51;;;;;;;20.52;11.38;;;4.70;91.90;;;;;;4655906;30;20046;-83
2021/12/12 08:40:22;;;;;;;20.77;11.82;;;4.60;91.20;;;;;;4658682;30;20085;-84
2021/12/12 08:42:50;;;;;;;25.77;12.15;;;4.70;91.50;;;;;;4658010;30;20038;-85
2021/12/12 08:45:19;;;;;;;22.65;11.68;;;4.70;91.40;;;;;;4658233;30;20049;-84
2021/12/12 08:47:49;;;;;;;21.13;11.43;;;4.70;91.70;;;;;;4656329;30;20334;-84
2021/12/12 08:50:20;;;;;;;21.88;11.02;;;4.70;91.60;;;;;;4671176;30;20114;-84
2021/12/12 08:52:48;;;;;;;19.88;10.18;;;4.70;91.60;;;;;;4661479;30;20073;-84
2021/12/12 08:55:20;;;;;;;20.05;9.55;;;4.70;91.10;;;;;;4657380;30;20381;-84
2021/12/12 09:00:22;;;;;;;21.70;10.25;;;4.70;90.40;;;;;;4662506;30;20038;-83
2021/12/12 09:02:49;;;;;;;19.80;10.45;;;4.80;90.50;;;;;;4653277;30;20054;-81
2021/12/12 09:05:21;;;;;;;17.15;9.98;;;4.90;90.80;;;;;;4645360;30;20039;-84
2021/12/12 09:07:50;;;;;;;17.08;10.77;;;5.00;90.50;;;;;;4657211;30;20109;-83
2021/12/12 09:10:28;;;;;;;22.42;11.27;;;5.10;90.40;;;;;;4646644;30;20055;-84
2021/12/12 09:13:02;;;;;;;19.25;10.73;;;5.20;90.00;;;;;;4647068;30;20221;-84
2021/12/12 09:15:44;;;;;;;16.00;10.07;;;5.30;89.30;;;;;;4673157;30;20042;-84
2021/12/12 09:18:20;;;;;;;20.33;11.07;;;5.30;89.60;;;;;;4655158;30;20046;-83
2021/12/12 09:20:53;;;;;;;25.45;11.75;;;5.20;90.10;;;;;;4653583;30;20048;-84
2021/12/12 09:23:22;;;;;;;21.33;11.05;;;5.30;90.20;;;;;;4667732;30;20053;-83
2021/12/12 09:25:56;;;;;;;18.60;10.70;;;5.30;90.10;;;;;;4644851;30;20061;-83
2021/12/12 09:28:32;;;;;;;18.67;10.55;;;5.40;89.80;;;;;;4658103;30;20038;-83
2021/12/12 09:31:04;;;;;;;19.40;10.85;;;5.30;88.80;;;;;;4658984;30;20117;-83
2021/12/12 09:33:39;;;;;;;20.65;9.90;;;5.40;88.80;;;;;;4655731;30;20038;-83
2021/12/12 09:36:17;;;;;;;13.40;8.82;;;5.50;87.80;;;;;;4652688;30;20039;-84
2021/12/12 09:38:54;;;;;;;17.23;9.85;;;5.60;87.30;;;;;;4642509;30;20040;-84
2021/12/12 09:41:42;;;;;;;15.32;8.52;;;5.80;86.90;;;;;;4652472;30;20377;-84
2021/12/12 09:44:50;;;;;;;14.85;8.00;;;5.90;85.90;;;;;;4655811;30;20378;-84
2021/12/12 09:47:28;;;;;;;14.45;8.75;;;5.90;83.50;;;;;;4656146;30;20075;-84
2021/12/12 09:53:20;;;;;;;13.57;7.70;;;5.80;83.10;;;;;;4656715;30;20089;-83
2021/12/12 09:56:14;;;;;;;15.32;8.20;;;5.70;83.90;;;;;;4656509;30;20094;-83
2021/12/12 09:58:52;;;;;;;13.98;8.73;;;5.70;84.10;;;;;;4652472;30;20042;-83
2021/12/12 10:01:32;;;;;;;15.02;8.07;;;5.80;84.60;;;;;;4656875;30;20031;-83
2021/12/12 10:04:04;;;;;;;13.73;7.65;;;5.90;84.00;;;;;;4664395;30;20086;-82
2021/12/12 10:06:58;;;;;;;15.10;8.60;;;5.90;81.80;;;;;;4637576;30;20027;-83
2021/12/12 10:09:33;;;;;;;14.40;8.23;;;5.90;83.70;;;;;;4636900;30;20322;-82
2021/12/12 10:12:03;;;;;;;12.95;8.45;;;5.80;83.60;;;;;;4645721;30;20030;-82
2021/12/12 10:14:50;;;;;;;20.15;8.88;;;5.90;83.40;;;;;;4649031;30;20070;-82
2021/12/12 10:17:35;;;;;;;;;;;6.10;83.90;;;;;;4642271;30;20070;-83
2021/12/12 10:20:08;;;;;;;16.67;8.60;;;6.10;82.90;;;;;;4628374;31;19916;-82
2021/12/12 10:22:52;;;;;;;16.83;9.00;;;6.10;82.60;;;;;;4619932;31;20271;-82
2021/12/12 10:25:26;;;;;;;17.15;8.73;;;6.10;82.60;;;;;;4610516;31;20093;-83
2021/12/12 10:28:02;;;;;;;17.98;9.73;;;6.00;84.00;;;;;;4621127;30;20913;-84
2021/12/12 10:30:35;;;;;;;17.77;10.07;;;6.00;83.90;;;;;;4624418;30;20035;-83
2021/12/12 10:33:23;;;;;;;14.20;9.18;;;6.10;85.10;;;;;;4628945;30;20118;-83
2021/12/12 10:36:00;;;;;;;15.27;9.40;;;6.20;84.40;;;;;;4640202;30;20034;-84
2021/12/12 10:38:52;;;;;;;24.40;12.32;;;6.30;84.50;;;;;;4626561;31;20051;-83
2021/12/12 10:41:26;;;;;;;31.70;17.48;;;6.20;84.30;;;;;;4629541;30;20098;-83
2021/12/12 10:44:36;;;;;;;25.83;14.50;;;6.20;84.60;;;;;;4640143;30;20152;-84
2021/12/12 10:47:08;;;;;;;48.65;22.70;;;6.10;85.00;;;;;;4596409;31;20152;-84
2021/12/12 10:49:55;;;;;;;66.05;27.02;;;6.10;85.50;;;;;;4602251;31;20115;-83
2021/12/12 10:52:32;;;;;;;;;;;6.10;86.30;;;;;;4600906;31;20028;-83
2021/12/12 10:55:10;;;;;;;76.25;34.50;;;6.10;86.50;;;;;;4590061;31;20009;-83
2021/12/12 10:57:37;;;;;;;51.85;26.55;;;6.00;87.30;;;;;;4588327;31;20391;-84
2021/12/12 11:00:12;;;;;;;22.73;12.70;;;6.00;87.20;;;;;;4590982;31;20254;-83
2021/12/12 11:02:49;;;;;;;19.25;11.57;;;6.00;87.80;;;;;;4590686;31;20426;-83
2021/12/12 11:05:17;;;;;;;;;;;6.00;87.50;;;;;;4604695;31;20060;-83
2021/12/12 11:07:51;;;;;;;23.35;11.90;;;6.00;88.30;;;;;;4594211;31;20125;-83
2021/12/12 11:10:26;;;;;;;21.80;11.02;;;5.90;88.00;;;;;;4603592;31;20092;-84
2021/12/12 11:13:04;;;;;;;18.73;12.05;;;5.90;88.30;;;;;;4602982;31;20078;-84
2021/12/12 11:15:48;;;;;;;18.77;12.10;;;5.90;87.80;;;;;;4589905;31;20047;-85
2021/12/12 11:18:32;;;;;;;22.13;11.77;;;5.90;88.30;;;;;;4591239;31;20044;-84
2021/12/12 11:21:47;;;;;;;20.83;12.50;;;5.90;88.60;;;;;;4590415;31;20367;-83
2021/12/12 11:24:31;;;;;;;21.93;11.77;;;5.90;88.70;;;;;;4533956;31;20094;-85
2021/12/12 11:26:59;;;;;;;21.17;12.52;;;5.80;88.80;;;;;;4552276;31;20053;-86
2021/12/12 11:29:32;;;;;;;22.67;13.45;;;5.90;89.20;;;;;;4557947;31;20054;-82
2021/12/12 11:32:09;;;;;;;18.73;11.65;;;5.90;89.10;;;;;;4549873;31;20110;-84
2021/12/12 11:34:40;;;;;;;23.33;13.73;;;5.90;89.30;;;;;;4550084;31;20046;-84
2021/12/12 11:37:37;;;;;;;18.90;11.30;;;6.00;89.60;;;;;;4547677;31;20053;-84
2021/12/12 11:40:20;;;;;;;21.13;11.93;;;6.00;88.60;;;;;;4549876;31;20045;-83
2021/12/12 11:42:49;;;;;;;23.67;12.13;;;6.00;89.10;;;;;;4554029;31;20309;-83
2021/12/12 11:45:24;;;;;;;20.45;11.57;;;6.00;89.30;;;;;;4565759;31;20060;-84
2021/12/12 11:48:02;;;;;;;19.98;11.77;;;6.00;89.50;;;;;;4551003;31;20053;-84
2021/12/12 11:50:31;;;;;;;21.25;12.35;;;6.00;89.30;;;;;;4552641;31;20106;-83
2021/12/12 11:53:07;;;;;;;18.65;12.00;;;6.10;89.20;;;;;;4551672;31;20111;-85
2021/12/12 11:55:44;;;;;;;19.20;10.70;;;6.10;89.00;;;;;;4563831;31;20080;-83
2021/12/12 11:58:32;;;;;;;18.55;11.50;;;6.10;88.60;;;;;;4551783;31;20037;-84
2021/12/12 12:01:22;;;;;;;18.98;11.43;;;6.20;88.10;;;;;;4594484;30;20081;-79
2021/12/12 12:04:06;;;;;;;18.05;11.43;;;6.10;88.20;;;;;;4660561;30;20034;-82
2021/12/12 12:06:58;;;;;;;18.85;10.52;;;6.20;88.60;;;;;;4658229;30;20050;-83
2021/12/12 12:09:48;;;;;;;18.33;11.35;;;6.20;88.50;;;;;;4638292;30;20122;-83
2021/12/12 12:12:40;;;;;;;17.25;10.52;;;6.20;88.70;;;;;;4609826;31;20039;-83
2021/12/12 12:15:28;;;;;;;19.40;11.18;;;6.30;88.30;;;;;;4612035;31;20051;-82
2021/12/12 12:18:27;;;;;;;26.85;15.45;;;6.30;89.30;;;;;;4625863;31;20046;-83
2021/12/12 12:21:11;;;;;;;18.98;12.43;;;6.30;89.10;;;;;;4626130;31;20048;-83
2021/12/12 12:26:55;;;;;;;20.17;11.50;;;6.40;89.10;;;;;;4591872;31;20082;-83
2021/12/12 12:29:30;;;;;;;28.33;12.80;;;6.50;88.90;;;;;;4605559;31;20047;-82
2021/12/12 12:32:33;;;;;;;19.35;12.13;;;6.50;89.00;;;;;;4612941;31;20044;-83
2021/12/12 12:35:36;;;;;;;17.55;10.60;;;6.40;88.30;;;;;;4613967;31;20152;-82
2021/12/12 12:38:32;;;;;;;19.95;11.60;;;6.50;89.20;;;;;;4590703;31;20048;-81
2021/12/12 12:41:22;;;;;;;20.30;12.02;;;6.50;88.80;;;;;;4579400;31;20040;-83
2021/12/12 12:44:25;;;;;;;20.02;12.38;;;6.50;89.20;;;;;;4581772;31;20047;-82
2021/12/12 12:47:28;;;;;;;22.48;12.10;;;6.50;90.00;;;;;;4616784;31;20071;-84
2021/12/12 12:50:25;;;;;;;22.27;13.13;;;6.40;89.90;;;;;;4619758;31;20058;-83
2021/12/12 12:53:09;;;;;;;22.00;12.82;;;6.40;90.00;;;;;;4620856;31;20040;-85
2021/12/12 12:56:22;;;;;;;23.33;11.93;;;6.40;90.00;;;;;;4603174;31;20040;-85
2021/12/12 12:59:21;;;;;;;17.15;10.80;;;6.30;90.20;;;;;;4563163;31;20032;-81
2021/12/12 13:02:04;;;;;;;21.92;12.45;;;6.30;90.30;;;;;;4581895;31;20206;-82
2021/12/12 13:04:58;;;;;;;19.60;11.80;;;6.30;90.40;;;;;;4600983;31;20056;-82
2021/12/12 13:08:17;;;;;;;20.30;12.43;;;6.20;90.40;;;;;;4585076;31;20193;-82
2021/12/12 13:10:47;;;;;;;21.70;12.45;;;6.20;90.40;;;;;;4587717;31;20028;-83
2021/12/12 13:13:33;;;;;;;23.48;12.18;;;6.20;90.50;;;;;;4587389;31;20049;-83
2021/12/12 13:16:18;;;;;;;21.17;12.60;;;6.10;90.30;;;;;;4587502;31;20228;-83
2021/12/12 13:18:58;;;;;;;19.77;12.57;;;6.10;90.10;;;;;;4584029;31;20136;-82
2021/12/12 13:21:32;;;;;;;18.40;11.63;;;6.10;90.40;;;;;;4588837;31;20036;-81
2021/12/12 13:24:18;;;;;;;21.42;12.63;;;6.10;90.70;;;;;;4575451;31;20046;-84
2021/12/12 13:27:05;;;;;;;21.42;13.13;;;6.00;90.70;;;;;;4577209;31;20368;-81
2021/12/12 13:29:50;;;;;;;21.10;12.77;;;6.00;90.60;;;;;;4574505;31;20036;-83
2021/12/12 13:32:21;;;;;;;19.55;11.98;;;6.00;90.80;;;;;;4606106;30;20035;-84
2021/12/12 13:35:01;;;;;;;21.88;12.23;;;5.90;90.80;;;;;;4644160;30;20090;-83
2021/12/12 13:37:36;;;;;;;25.42;13.23;;;5.90;90.90;;;;;;4656595;30;20159;-83
2021/12/12 13:40:13;;;;;;;22.30;13.45;;;5.90;91.00;;;;;;4661320;30;20047;-83
2021/12/12 13:42:52;;;;;;;22.55;11.35;;;5.90;90.80;;;;;;4656286;30;20062;-81
2021/12/12 13:45:28;;;;;;;17.80;11.52;;;5.90;90.90;;;;;;4655158;30;20051;-84
2021/12/12 13:48:00;;;;;;;20.45;11.20;;;5.90;91.00;;;;;;4672115;30;20117;-82
2021/12/12 13:50:27;;;;;;;19.73;12.85;;;5.90;90.90;;;;;;4657209;30;20082;-83
2021/12/12 13:53:38;;;;;;;17.50;11.40;;;5.90;91.00;;;;;;4652243;30;20042;-81
2021/12/12 13:56:18;;;;;;;19.30;10.63;;;5.90;91.00;;;;;;4648491;30;20231;-82
2021/12/12 13:59:28;;;;;;;17.77;10.95;;;5.80;90.90;;;;;;4644523;30;20249;-84
2021/12/12 14:02:03;;;;;;;21.67;12.43;;;5.80;91.10;;;;;;4592930;31;20051;-80
2021/12/12 14:04:53;;;;;;;19.13;11.05;;;5.80;91.10;;;;;;4607529;31;20066;-84
2021/12/12 14:07:32;;;;;;;20.15;11.70;;;5.80;91.00;;;;;;4597547;31;20044;-83
2021/12/12 14:10:02;;;;;;;24.98;11.40;;;5.80;91.20;;;;;;4620991;31;20174;-84
2021/12/12 14:12:32;;;;;;;19.65;11.50;;;5.80;91.20;;;;;;4607783;31;20070;-83
2021/12/12 14:15:07;;;;;;;17.50;10.80;;;5.70;91.30;;;;;;4607773;31;20059;-83
2021/12/12 14:17:49;;;;;;;20.02;11.27;;;5.80;91.40;;;;;;4597074;31;20054;-83
2021/12/12 14:20:31;;;;;;;19.98;12.32;;;5.70;91.30;;;;;;4607612;31;20036;-84
2021/12/12 14:22:59;;;;;;;19.83;11.82;;;5.70;91.40;;;;;;4603687;31;20335;-83
2021/12/12 14:25:26;;;;;;;20.27;11.15;;;5.80;91.40;;;;;;4574000;31;20068;-84
2021/12/12 14:27:56;;;;;;;18.77;10.40;;;5.80;91.40;;;;;;4619259;31;20028;-84
2021/12/12 14:30:24;;;;;;;18.50;11.60;;;5.80;91.40;;;;;;4602611;31;20325;-84
2021/12/12 14:33:01;;;;;;;20.20;11.27;;;5.70;91.20;;;;;;4615750;31;20039;-84
2021/12/12 14:36:03;;;;;;;18.80;10.93;;;5.70;91.30;;;;;;4605133;31;20332;-84
2021/12/12 14:38:31;;;;;;;17.35;10.75;;;5.70;91.40;;;;;;4604191;31;20382;-85
2021/12/12 14:41:01;;;;;;;22.42;11.05;;;5.60;91.30;;;;;;4580225;31;20048;-83
2021/12/12 14:43:51;;;;;;;20.08;10.75;;;5.60;91.50;;;;;;4620853;31;20052;-84
2021/12/12 14:46:24;;;;;;;14.40;9.48;;;5.60;91.50;;;;;;4601770;31;20520;-84
2021/12/12 14:49:03;;;;;;;18.77;9.85;;;5.60;91.60;;;;;;4605625;31;20044;-85
2021/12/12 14:51:34;;;;;;;16.70;10.05;;;5.50;91.40;;;;;;4607532;31;20036;-85
2021/12/12 14:54:09;;;;;;;19.83;10.70;;;5.50;91.50;;;;;;4593837;31;20043;-85
2021/12/12 14:56:42;;;;;;;17.77;10.63;;;5.50;91.50;;;;;;4603647;31;20119;-84
2021/12/12 14:59:12;;;;;;;16.63;9.77;;;5.50;91.60;;;;;;4619957;31;20103;-85
2021/12/12 15:01:52;;;;;;;15.82;9.82;;;5.40;91.60;;;;;;4622209;31;20062;-85
2021/12/12 15:04:22;;;;;;;15.10;9.60;;;5.40;91.70;;;;;;4610735;31;20035;-84
2021/12/12 15:06:58;;;;;;;19.27;11.32;;;5.50;91.90;;;;;;4621584;31;20031;-85
2021/12/12 15:09:36;;;;;;;22.30;10.73;;;5.40;91.90;;;;;;4606093;31;20127;-85
2021/12/12 15:12:28;;;;;;;20.33;10.25;;;5.40;92.10;;;;;;4606250;31;20335;-86
2021/12/12 15:15:12;;;;;;;20.60;11.05;;;5.40;92.10;;;;;;4566235;31;20364;-85
2021/12/12 15:17:39;;;;;;;18.52;10.43;;;5.30;92.20;;;;;;4578601;31;20052;-86
2021/12/12 15:20:16;;;;;;;19.17;10.27;;;5.30;92.20;;;;;;4592630;31;20348;-84
2021/12/12 15:22:50;;;;;;;18.10;11.32;;;5.30;92.30;;;;;;4578849;31;20044;-84
2021/12/12 15:25:24;;;;;;;18.77;11.45;;;5.30;92.40;;;;;;4594510;31;20131;-84
2021/12/12 15:27:52;;;;;;;27.23;15.32;;;5.20;92.80;;;;;;4578826;31;20033;-83
2021/12/12 15:30:22;;;;;;;29.42;18.30;;;5.20;93.40;;;;;;4590591;31;20052;-80
2021/12/12 15:32:54;;;;;;;34.63;20.27;;;5.20;93.80;;;;;;4578538;31;20052;-81
2021/12/12 15:35:25;;;;;;;37.80;20.55;;;5.20;94.40;;;;;;4577554;31;20132;-84
2021/12/12 15:37:52;;;;;;;41.53;22.90;;;5.10;95.00;;;;;;4579453;31;20029;-84
2021/12/12 15:40:30;;;;;;;40.60;23.50;;;5.10;95.40;;;;;;4574643;31;20157;-85
2021/12/12 15:42:59;;;;;;;44.70;24.00;;;5.10;95.50;;;;;;4581942;31;20032;-87
2021/12/12 15:45:46;;;;;;;38.63;23.40;;;5.10;95.80;;;;;;4578201;31;20120;-84
2021/12/12 15:48:22;;;;;;;43.80;23.75;;;5.00;96.20;;;;;;4584273;31;20052;-84
2021/12/12 15:50:51;;;;;;;37.67;22.80;;;5.00;96.30;;;;;;4581499;30;20037;-85
2021/12/12 15:53:21;;;;;;;41.63;23.90;;;5.00;96.40;;;;;;4643824;30;20051;-84
2021/12/12 15:55:51;;;;;;;41.97;24.92;;;5.00;96.50;;;;;;4634526;30;20038;-85
2021/12/12 15:58:23;;;;;;;42.53;23.40;;;5.00;96.60;;;;;;4634398;30;20338;-85
2021/12/12 16:00:53;;;;;;;40.15;23.50;;;4.90;96.70;;;;;;4635964;30;20098;-85
2021/12/12 16:03:25;;;;;;;38.22;22.35;;;4.90;97.10;;;;;;4657967;30;20121;-85
2021/12/12 16:05:59;;;;;;;43.38;23.27;;;4.90;96.90;;;;;;4640957;30;20047;-85
2021/12/12 16:08:38;;;;;;;37.67;21.65;;;4.90;97.00;;;;;;4646979;30;20042;-85
2021/12/12 16:11:08;;;;;;;41.08;23.70;;;4.90;97.00;;;;;;4641842;30;20062;-86
2021/12/12 16:13:42;;;;;;;39.60;23.17;;;4.90;96.90;;;;;;4657579;30;20106;-85
2021/12/12 16:16:10;;;;;;;36.42;22.23;;;4.80;97.10;;;;;;4646193;30;20043;-85
2021/12/12 16:18:41;;;;;;;36.83;20.95;;;4.80;97.10;;;;;;4654557;30;20047;-85
2021/12/12 16:21:13;;;;;;;40.22;21.38;;;4.80;97.00;;;;;;4655148;30;20050;-85
2021/12/12 16:23:46;;;;;;;34.95;21.55;;;4.80;97.10;;;;;;4642350;30;20065;-85
2021/12/12 16:26:17;;;;;;;36.88;21.58;;;4.80;97.30;;;;;;4643963;30;20042;-85
2021/12/12 16:28:43;;;;;;;37.78;22.30;;;4.70;97.30;;;;;;4642574;30;20039;-85
2021/12/12 16:31:12;;;;;;;39.60;21.27;;;4.70;97.50;;;;;;4639513;30;20284;-85
2021/12/12 16:33:46;;;;;;;38.83;21.77;;;4.70;97.50;;;;;;4654713;30;20043;-86
2021/12/12 16:36:23;;;;;;;36.63;20.80;;;4.70;97.40;;;;;;4654287;30;20127;-85
2021/12/12 16:38:50;;;;;;;36.25;21.63;;;4.70;97.40;;;;;;4626311;30;20035;-85
2021/12/12 16:41:17;;;;;;;33.55;21.67;;;4.70;97.30;;;;;;4654595;30;20079;-85
2021/12/12 16:43:59;;;;;;;38.58;20.35;;;4.70;97.40;;;;;;4642571;30;20059;-85
2021/12/12 16:46:35;;;;;;;36.60;20.27;;;4.60;97.50;;;;;;4648307;30;20417;-85
2021/12/12 16:49:04;;;;;;;39.08;19.95;;;4.50;97.60;;;;;;4672532;30;20039;-85
2021/12/12 16:51:43;;;;;;;33.80;20.50;;;4.50;97.60;;;;;;4657749;30;20071;-85
2021/12/12 16:54:13;;;;;;;37.88;20.40;;;4.50;97.60;;;;;;4638048;30;20087;-85
2021/12/12 16:56:47;;;;;;;32.63;20.15;;;4.50;97.60;;;;;;4655016;30;20093;-86
2021/12/12 16:59:24;;;;;;;36.08;19.13;;;4.50;97.80;;;;;;4638751;30;20057;-85
2021/12/12 17:01:51;;;;;;;;;;;4.50;97.70;;;;;;4655601;30;20034;-84
2021/12/12 17:04:20;;;;;;;38.00;19.63;;;4.40;97.80;;;;;;4668664;30;19919;-85
2021/12/12 17:07:00;;;;;;;33.70;18.92;;;4.40;97.70;;;;;;4642417;30;20034;-85
2021/12/12 17:09:36;;;;;;;35.13;19.30;;;4.40;97.60;;;;;;4669027;30;20077;-85
2021/12/12 17:12:27;;;;;;;34.42;19.27;;;4.50;97.70;;;;;;4651717;30;20111;-85
2021/12/12 17:14:56;;;;;;;36.40;18.25;;;4.50;97.60;;;;;;4654326;30;20039;-85
2021/12/12 17:17:30;;;;;;;29.05;17.23;;;4.50;97.50;;;;;;4639585;30;20114;-85
2021/12/12 17:20:07;;;;;;;26.63;16.90;;;4.50;97.50;;;;;;4641685;30;20086;-85